sensor_id;sensor_type;location;lat;lon;timestamp;P1;durP1;ratioP1;P2;durP2;ratioP2
39994;SDS011;25686;51.908;10.418;2022-07-23T00:01:17;8.05;;;6.47;;
39994;SDS011;25686;51.908;10.418;2022-07-23T00:03:18;7.43;;;6.38;;
39994;SDS011;25686;51.908;10.418;2022-07-23T00:05:19;8.95;;;7.03;;
39994;SDS011;25686;51.908;10.418;2022-07-23T00:07:20;7.63;;;6.13;;
39994;SDS011;25686;51.908;10.418;2022-07-23T00:09:21;8.13;;;6.30;;
39994;SDS011;25686;51.908;10.418;2022-07-23T00:11:22;7.53;;;6.20;;
39994;SDS011;25686;51.908;10.418;2022-07-23T00:13:23;9.32;;;6.65;;
39994;SDS011;25686;51.908;10.418;2022-07-23T00:15:23;7.57;;;6.20;;
39994;SDS011;25686;51.908;10.418;2022-07-23T00:17:24;10.63;;;6.28;;
39994;SDS011;25686;51.908;10.418;2022-07-23T00:19:25;7.35;;;6.15;;
39994;SDS011;25686;51.908;10.418;2022-07-23T00:21:26;8.23;;;6.55;;
39994;SDS011;25686;51.908;10.418;2022-07-23T00:23:28;8.73;;;7.00;;
39994;SDS011;25686;51.908;10.418;2022-07-23T00:25:30;9.68;;;7.05;;
39994;SDS011;25686;51.908;10.418;2022-07-23T00:27:31;10.00;;;6.82;;
39994;SDS011;25686;51.908;10.418;2022-07-23T00:29:32;9.80;;;7.30;;
39994;SDS011;25686;51.908;10.418;2022-07-23T00:31:33;8.88;;;7.78;;
39994;SDS011;25686;51.908;10.418;2022-07-23T00:33:34;9.93;;;8.02;;
39994;SDS011;25686;51.908;10.418;2022-07-23T00:35:37;9.45;;;7.28;;
39994;SDS011;25686;51.908;10.418;2022-07-23T00:37:40;10.90;;;7.55;;
39994;SDS011;25686;51.908;10.418;2022-07-23T00:39:41;8.57;;;7.47;;
39994;SDS011;25686;51.908;10.418;2022-07-23T00:41:42;9.55;;;7.25;;
39994;SDS011;25686;51.908;10.418;2022-07-23T00:43:43;10.82;;;7.80;;
39994;SDS011;25686;51.908;10.418;2022-07-23T00:45:44;10.95;;;7.68;;
39994;SDS011;25686;51.908;10.418;2022-07-23T00:47:45;10.20;;;7.45;;
39994;SDS011;25686;51.908;10.418;2022-07-23T00:49:46;11.13;;;8.00;;
39994;SDS011;25686;51.908;10.418;2022-07-23T00:51:47;7.97;;;7.18;;
39994;SDS011;25686;51.908;10.418;2022-07-23T00:53:49;9.20;;;7.47;;
39994;SDS011;25686;51.908;10.418;2022-07-23T00:55:49;10.93;;;8.48;;
39994;SDS011;25686;51.908;10.418;2022-07-23T00:57:50;9.82;;;7.60;;
39994;SDS011;25686;51.908;10.418;2022-07-23T00:59:53;11.32;;;8.25;;
39994;SDS011;25686;51.908;10.418;2022-07-23T01:01:54;12.70;;;7.90;;
39994;SDS011;25686;51.908;10.418;2022-07-23T01:03:55;10.02;;;7.97;;
39994;SDS011;25686;51.908;10.418;2022-07-23T01:05:56;9.57;;;7.93;;
39994;SDS011;25686;51.908;10.418;2022-07-23T01:07:58;11.00;;;8.50;;
39994;SDS011;25686;51.908;10.418;2022-07-23T01:09:59;12.10;;;8.82;;
39994;SDS011;25686;51.908;10.418;2022-07-23T01:12:00;11.00;;;8.40;;
39994;SDS011;25686;51.908;10.418;2022-07-23T01:14:08;11.65;;;9.00;;
39994;SDS011;25686;51.908;10.418;2022-07-23T01:16:09;11.73;;;8.65;;
39994;SDS011;25686;51.908;10.418;2022-07-23T01:18:10;11.27;;;8.18;;
39994;SDS011;25686;51.908;10.418;2022-07-23T01:20:12;11.52;;;9.57;;
39994;SDS011;25686;51.908;10.418;2022-07-23T01:22:13;11.50;;;8.70;;
39994;SDS011;25686;51.908;10.418;2022-07-23T01:24:15;13.63;;;9.82;;
39994;SDS011;25686;51.908;10.418;2022-07-23T01:26:18;13.40;;;9.63;;
39994;SDS011;25686;51.908;10.418;2022-07-23T01:28:19;13.57;;;10.40;;
39994;SDS011;25686;51.908;10.418;2022-07-23T01:30:20;14.07;;;9.75;;
39994;SDS011;25686;51.908;10.418;2022-07-23T01:32:21;12.18;;;10.15;;
39994;SDS011;25686;51.908;10.418;2022-07-23T01:34:22;13.15;;;10.25;;
39994;SDS011;25686;51.908;10.418;2022-07-23T01:36:23;15.88;;;10.52;;
39994;SDS011;25686;51.908;10.418;2022-07-23T01:38:24;15.23;;;10.50;;
39994;SDS011;25686;51.908;10.418;2022-07-23T01:40:25;17.15;;;10.98;;
39994;SDS011;25686;51.908;10.418;2022-07-23T01:42:26;16.30;;;10.95;;
39994;SDS011;25686;51.908;10.418;2022-07-23T01:44:27;14.70;;;11.07;;
39994;SDS011;25686;51.908;10.418;2022-07-23T01:46:28;14.77;;;10.82;;
39994;SDS011;25686;51.908;10.418;2022-07-23T01:48:29;15.73;;;11.05;;
39994;SDS011;25686;51.908;10.418;2022-07-23T01:50:30;13.30;;;10.25;;
39994;SDS011;25686;51.908;10.418;2022-07-23T01:52:31;14.75;;;10.77;;
39994;SDS011;25686;51.908;10.418;2022-07-23T01:54:33;14.80;;;11.05;;
39994;SDS011;25686;51.908;10.418;2022-07-23T01:56:34;15.57;;;10.80;;
39994;SDS011;25686;51.908;10.418;2022-07-23T01:58:35;17.13;;;10.98;;
39994;SDS011;25686;51.908;10.418;2022-07-23T02:00:36;15.23;;;10.02;;
39994;SDS011;25686;51.908;10.418;2022-07-23T02:02:37;14.27;;;10.82;;
39994;SDS011;25686;51.908;10.418;2022-07-23T02:04:38;17.88;;;11.60;;
39994;SDS011;25686;51.908;10.418;2022-07-23T02:06:38;14.32;;;10.88;;
39994;SDS011;25686;51.908;10.418;2022-07-23T02:08:39;14.82;;;10.82;;
39994;SDS011;25686;51.908;10.418;2022-07-23T02:10:40;12.75;;;9.90;;
39994;SDS011;25686;51.908;10.418;2022-07-23T02:12:41;15.45;;;10.40;;
39994;SDS011;25686;51.908;10.418;2022-07-23T02:14:42;11.50;;;9.52;;
39994;SDS011;25686;51.908;10.418;2022-07-23T02:16:43;14.13;;;10.95;;
39994;SDS011;25686;51.908;10.418;2022-07-23T02:18:44;15.10;;;11.15;;
39994;SDS011;25686;51.908;10.418;2022-07-23T02:20:46;19.13;;;10.63;;
39994;SDS011;25686;51.908;10.418;2022-07-23T02:22:47;13.43;;;10.23;;
39994;SDS011;25686;51.908;10.418;2022-07-23T02:24:48;18.98;;;11.02;;
39994;SDS011;25686;51.908;10.418;2022-07-23T02:26:49;15.50;;;10.48;;
39994;SDS011;25686;51.908;10.418;2022-07-23T02:28:50;13.18;;;10.13;;
39994;SDS011;25686;51.908;10.418;2022-07-23T02:30:52;12.75;;;10.07;;
39994;SDS011;25686;51.908;10.418;2022-07-23T02:32:53;15.57;;;10.43;;
39994;SDS011;25686;51.908;10.418;2022-07-23T02:34:54;17.48;;;10.60;;
39994;SDS011;25686;51.908;10.418;2022-07-23T02:36:55;15.60;;;10.10;;
39994;SDS011;25686;51.908;10.418;2022-07-23T02:38:56;16.27;;;11.13;;
39994;SDS011;25686;51.908;10.418;2022-07-23T02:40:57;16.67;;;9.98;;
39994;SDS011;25686;51.908;10.418;2022-07-23T02:42:58;17.55;;;10.98;;
39994;SDS011;25686;51.908;10.418;2022-07-23T02:44:59;16.90;;;10.95;;
39994;SDS011;25686;51.908;10.418;2022-07-23T02:47:00;19.60;;;10.88;;
39994;SDS011;25686;51.908;10.418;2022-07-23T02:49:01;16.90;;;10.82;;
39994;SDS011;25686;51.908;10.418;2022-07-23T02:51:04;18.33;;;10.98;;
39994;SDS011;25686;51.908;10.418;2022-07-23T02:53:05;17.55;;;11.73;;
39994;SDS011;25686;51.908;10.418;2022-07-23T02:55:06;17.75;;;11.57;;
39994;SDS011;25686;51.908;10.418;2022-07-23T02:57:07;17.90;;;11.63;;
39994;SDS011;25686;51.908;10.418;2022-07-23T02:59:08;19.55;;;10.70;;
39994;SDS011;25686;51.908;10.418;2022-07-23T03:01:09;20.88;;;11.05;;
39994;SDS011;25686;51.908;10.418;2022-07-23T03:03:10;18.90;;;11.20;;
39994;SDS011;25686;51.908;10.418;2022-07-23T03:05:11;16.73;;;11.00;;
39994;SDS011;25686;51.908;10.418;2022-07-23T03:07:12;16.17;;;10.95;;
39994;SDS011;25686;51.908;10.418;2022-07-23T03:09:13;17.48;;;11.18;;
39994;SDS011;25686;51.908;10.418;2022-07-23T03:11:14;14.52;;;10.23;;
39994;SDS011;25686;51.908;10.418;2022-07-23T03:13:15;24.58;;;12.35;;
39994;SDS011;25686;51.908;10.418;2022-07-23T03:15:16;19.90;;;11.57;;
39994;SDS011;25686;51.908;10.418;2022-07-23T03:17:17;22.23;;;11.52;;
39994;SDS011;25686;51.908;10.418;2022-07-23T03:19:18;18.30;;;11.98;;
39994;SDS011;25686;51.908;10.418;2022-07-23T03:21:18;19.38;;;12.20;;
39994;SDS011;25686;51.908;10.418;2022-07-23T03:23:19;20.98;;;12.00;;
39994;SDS011;25686;51.908;10.418;2022-07-23T03:25:20;18.35;;;12.25;;
39994;SDS011;25686;51.908;10.418;2022-07-23T03:27:22;19.60;;;11.05;;
39994;SDS011;25686;51.908;10.418;2022-07-23T03:29:23;17.88;;;11.68;;
39994;SDS011;25686;51.908;10.418;2022-07-23T03:31:24;20.73;;;12.00;;
39994;SDS011;25686;51.908;10.418;2022-07-23T03:33:25;19.00;;;11.95;;
39994;SDS011;25686;51.908;10.418;2022-07-23T03:35:26;22.35;;;11.73;;
39994;SDS011;25686;51.908;10.418;2022-07-23T03:37:27;20.95;;;11.75;;
39994;SDS011;25686;51.908;10.418;2022-07-23T03:39:28;23.20;;;12.23;;
39994;SDS011;25686;51.908;10.418;2022-07-23T03:41:29;17.27;;;10.85;;
39994;SDS011;25686;51.908;10.418;2022-07-23T03:43:30;19.42;;;11.25;;
39994;SDS011;25686;51.908;10.418;2022-07-23T03:45:31;16.65;;;11.55;;
39994;SDS011;25686;51.908;10.418;2022-07-23T03:47:32;20.63;;;11.85;;
39994;SDS011;25686;51.908;10.418;2022-07-23T03:49:33;19.63;;;12.27;;
39994;SDS011;25686;51.908;10.418;2022-07-23T03:51:34;21.15;;;12.45;;
39994;SDS011;25686;51.908;10.418;2022-07-23T03:53:35;19.13;;;11.38;;
39994;SDS011;25686;51.908;10.418;2022-07-23T03:55:35;21.52;;;12.30;;
39994;SDS011;25686;51.908;10.418;2022-07-23T03:57:36;16.92;;;11.45;;
39994;SDS011;25686;51.908;10.418;2022-07-23T03:59:37;17.38;;;11.80;;
39994;SDS011;25686;51.908;10.418;2022-07-23T04:01:38;22.10;;;11.90;;
39994;SDS011;25686;51.908;10.418;2022-07-23T04:03:39;20.05;;;10.77;;
39994;SDS011;25686;51.908;10.418;2022-07-23T04:05:40;24.45;;;11.05;;
39994;SDS011;25686;51.908;10.418;2022-07-23T04:07:41;20.52;;;11.18;;
39994;SDS011;25686;51.908;10.418;2022-07-23T04:09:42;18.33;;;11.48;;
39994;SDS011;25686;51.908;10.418;2022-07-23T04:11:43;14.43;;;10.80;;
39994;SDS011;25686;51.908;10.418;2022-07-23T04:13:44;18.05;;;10.77;;
39994;SDS011;25686;51.908;10.418;2022-07-23T04:15:44;18.13;;;10.48;;
39994;SDS011;25686;51.908;10.418;2022-07-23T04:17:45;15.52;;;9.93;;
39994;SDS011;25686;51.908;10.418;2022-07-23T04:19:46;16.35;;;10.25;;
39994;SDS011;25686;51.908;10.418;2022-07-23T04:21:47;18.05;;;10.55;;
39994;SDS011;25686;51.908;10.418;2022-07-23T04:23:48;19.48;;;10.57;;
39994;SDS011;25686;51.908;10.418;2022-07-23T04:25:49;18.25;;;11.00;;
39994;SDS011;25686;51.908;10.418;2022-07-23T04:27:50;16.20;;;10.93;;
39994;SDS011;25686;51.908;10.418;2022-07-23T04:29:51;18.65;;;11.27;;
39994;SDS011;25686;51.908;10.418;2022-07-23T04:31:52;17.08;;;10.27;;
39994;SDS011;25686;51.908;10.418;2022-07-23T04:33:53;19.17;;;11.75;;
39994;SDS011;25686;51.908;10.418;2022-07-23T04:35:54;17.15;;;12.15;;
39994;SDS011;25686;51.908;10.418;2022-07-23T04:37:55;18.02;;;11.70;;
39994;SDS011;25686;51.908;10.418;2022-07-23T04:39:56;17.90;;;11.60;;
39994;SDS011;25686;51.908;10.418;2022-07-23T04:41:57;16.23;;;10.80;;
39994;SDS011;25686;51.908;10.418;2022-07-23T04:43:58;15.70;;;10.77;;
39994;SDS011;25686;51.908;10.418;2022-07-23T04:45:58;17.42;;;11.23;;
39994;SDS011;25686;51.908;10.418;2022-07-23T04:47:59;17.02;;;10.65;;
39994;SDS011;25686;51.908;10.418;2022-07-23T04:50:01;13.63;;;10.30;;
39994;SDS011;25686;51.908;10.418;2022-07-23T04:52:02;17.00;;;10.15;;
39994;SDS011;25686;51.908;10.418;2022-07-23T04:54:03;17.98;;;10.32;;
39994;SDS011;25686;51.908;10.418;2022-07-23T04:56:04;19.40;;;12.05;;
39994;SDS011;25686;51.908;10.418;2022-07-23T04:58:05;16.20;;;11.60;;
39994;SDS011;25686;51.908;10.418;2022-07-23T05:00:06;14.45;;;10.60;;
39994;SDS011;25686;51.908;10.418;2022-07-23T05:02:07;14.45;;;10.80;;
39994;SDS011;25686;51.908;10.418;2022-07-23T05:04:08;16.35;;;10.80;;
39994;SDS011;25686;51.908;10.418;2022-07-23T05:06:09;17.15;;;11.25;;
39994;SDS011;25686;51.908;10.418;2022-07-23T05:08:11;15.95;;;10.82;;
39994;SDS011;25686;51.908;10.418;2022-07-23T05:10:12;18.92;;;11.05;;
39994;SDS011;25686;51.908;10.418;2022-07-23T05:12:13;17.25;;;11.05;;
39994;SDS011;25686;51.908;10.418;2022-07-23T05:14:14;20.00;;;11.70;;
39994;SDS011;25686;51.908;10.418;2022-07-23T05:16:15;18.92;;;11.40;;
39994;SDS011;25686;51.908;10.418;2022-07-23T05:18:16;17.90;;;11.35;;
39994;SDS011;25686;51.908;10.418;2022-07-23T05:20:16;18.95;;;11.30;;
39994;SDS011;25686;51.908;10.418;2022-07-23T05:22:17;17.23;;;10.80;;
39994;SDS011;25686;51.908;10.418;2022-07-23T05:24:18;17.15;;;11.38;;
39994;SDS011;25686;51.908;10.418;2022-07-23T05:26:19;16.95;;;10.50;;
39994;SDS011;25686;51.908;10.418;2022-07-23T05:28:20;17.88;;;11.07;;
39994;SDS011;25686;51.908;10.418;2022-07-23T05:30:21;16.15;;;10.13;;
39994;SDS011;25686;51.908;10.418;2022-07-23T05:32:22;15.60;;;10.38;;
39994;SDS011;25686;51.908;10.418;2022-07-23T05:34:23;19.85;;;11.02;;
39994;SDS011;25686;51.908;10.418;2022-07-23T05:36:24;15.95;;;10.25;;
39994;SDS011;25686;51.908;10.418;2022-07-23T05:38:26;15.65;;;11.43;;
39994;SDS011;25686;51.908;10.418;2022-07-23T05:40:27;16.17;;;10.32;;
39994;SDS011;25686;51.908;10.418;2022-07-23T05:42:28;16.90;;;10.10;;
39994;SDS011;25686;51.908;10.418;2022-07-23T05:44:29;17.10;;;10.82;;
39994;SDS011;25686;51.908;10.418;2022-07-23T05:46:30;17.70;;;11.02;;
39994;SDS011;25686;51.908;10.418;2022-07-23T05:48:31;18.38;;;11.75;;
39994;SDS011;25686;51.908;10.418;2022-07-23T05:50:32;17.20;;;11.88;;
39994;SDS011;25686;51.908;10.418;2022-07-23T05:52:33;17.45;;;11.13;;
39994;SDS011;25686;51.908;10.418;2022-07-23T05:54:34;17.65;;;11.77;;
39994;SDS011;25686;51.908;10.418;2022-07-23T05:56:35;18.42;;;10.75;;
39994;SDS011;25686;51.908;10.418;2022-07-23T05:58:36;17.17;;;10.95;;
39994;SDS011;25686;51.908;10.418;2022-07-23T06:00:37;19.17;;;11.55;;
39994;SDS011;25686;51.908;10.418;2022-07-23T06:02:38;16.02;;;10.75;;
39994;SDS011;25686;51.908;10.418;2022-07-23T06:04:39;17.90;;;11.52;;
39994;SDS011;25686;51.908;10.418;2022-07-23T06:06:40;17.38;;;10.88;;
39994;SDS011;25686;51.908;10.418;2022-07-23T06:08:41;20.08;;;11.52;;
39994;SDS011;25686;51.908;10.418;2022-07-23T06:10:42;19.10;;;11.65;;
39994;SDS011;25686;51.908;10.418;2022-07-23T06:12:43;18.85;;;11.52;;
39994;SDS011;25686;51.908;10.418;2022-07-23T06:14:44;18.85;;;11.85;;
39994;SDS011;25686;51.908;10.418;2022-07-23T06:16:45;15.65;;;10.32;;
39994;SDS011;25686;51.908;10.418;2022-07-23T06:18:46;16.70;;;10.82;;
39994;SDS011;25686;51.908;10.418;2022-07-23T06:20:46;14.88;;;11.07;;
39994;SDS011;25686;51.908;10.418;2022-07-23T06:22:47;17.00;;;11.27;;
39994;SDS011;25686;51.908;10.418;2022-07-23T06:24:48;18.15;;;10.02;;
39994;SDS011;25686;51.908;10.418;2022-07-23T06:26:50;16.20;;;9.90;;
39994;SDS011;25686;51.908;10.418;2022-07-23T06:28:51;15.25;;;9.77;;
39994;SDS011;25686;51.908;10.418;2022-07-23T06:30:52;13.25;;;9.82;;
39994;SDS011;25686;51.908;10.418;2022-07-23T06:32:53;13.82;;;10.23;;
39994;SDS011;25686;51.908;10.418;2022-07-23T06:34:54;15.52;;;10.55;;
39994;SDS011;25686;51.908;10.418;2022-07-23T06:36:55;17.15;;;11.00;;
39994;SDS011;25686;51.908;10.418;2022-07-23T06:38:56;13.77;;;10.23;;
39994;SDS011;25686;51.908;10.418;2022-07-23T06:40:57;12.88;;;10.38;;
39994;SDS011;25686;51.908;10.418;2022-07-23T06:42:58;14.88;;;10.02;;
39994;SDS011;25686;51.908;10.418;2022-07-23T06:44:59;19.50;;;10.57;;
39994;SDS011;25686;51.908;10.418;2022-07-23T06:47:00;20.52;;;11.38;;
39994;SDS011;25686;51.908;10.418;2022-07-23T06:49:01;16.73;;;10.55;;
39994;SDS011;25686;51.908;10.418;2022-07-23T06:51:04;15.10;;;10.93;;
39994;SDS011;25686;51.908;10.418;2022-07-23T06:53:04;19.00;;;11.68;;
39994;SDS011;25686;51.908;10.418;2022-07-23T06:55:05;14.70;;;11.18;;
39994;SDS011;25686;51.908;10.418;2022-07-23T06:57:06;15.30;;;10.02;;
39994;SDS011;25686;51.908;10.418;2022-07-23T06:59:07;12.93;;;9.65;;
39994;SDS011;25686;51.908;10.418;2022-07-23T07:01:08;16.27;;;10.02;;
39994;SDS011;25686;51.908;10.418;2022-07-23T07:03:09;17.73;;;10.45;;
39994;SDS011;25686;51.908;10.418;2022-07-23T07:05:10;14.82;;;9.25;;
39994;SDS011;25686;51.908;10.418;2022-07-23T07:07:11;15.32;;;9.23;;
39994;SDS011;25686;51.908;10.418;2022-07-23T07:09:12;11.43;;;8.88;;
39994;SDS011;25686;51.908;10.418;2022-07-23T07:11:13;15.35;;;9.02;;
39994;SDS011;25686;51.908;10.418;2022-07-23T07:13:14;15.50;;;9.25;;
39994;SDS011;25686;51.908;10.418;2022-07-23T07:15:15;11.65;;;8.02;;
39994;SDS011;25686;51.908;10.418;2022-07-23T07:17:16;14.23;;;8.50;;
39994;SDS011;25686;51.908;10.418;2022-07-23T07:19:17;15.02;;;8.68;;
39994;SDS011;25686;51.908;10.418;2022-07-23T07:21:18;14.63;;;8.20;;
39994;SDS011;25686;51.908;10.418;2022-07-23T07:23:18;13.95;;;8.68;;
39994;SDS011;25686;51.908;10.418;2022-07-23T07:25:20;14.55;;;8.63;;
39994;SDS011;25686;51.908;10.418;2022-07-23T07:27:21;12.10;;;7.75;;
39994;SDS011;25686;51.908;10.418;2022-07-23T07:29:22;12.02;;;7.57;;
39994;SDS011;25686;51.908;10.418;2022-07-23T07:31:23;11.00;;;7.30;;
39994;SDS011;25686;51.908;10.418;2022-07-23T07:33:24;13.93;;;6.75;;
39994;SDS011;25686;51.908;10.418;2022-07-23T07:35:25;14.77;;;6.47;;
39994;SDS011;25686;51.908;10.418;2022-07-23T07:37:26;12.25;;;6.75;;
39994;SDS011;25686;51.908;10.418;2022-07-23T07:39:27;10.77;;;6.35;;
39994;SDS011;25686;51.908;10.418;2022-07-23T07:41:27;11.10;;;6.38;;
39994;SDS011;25686;51.908;10.418;2022-07-23T07:43:28;12.38;;;6.65;;
39994;SDS011;25686;51.908;10.418;2022-07-23T07:45:29;12.48;;;6.28;;
39994;SDS011;25686;51.908;10.418;2022-07-23T07:47:30;6.40;;;4.70;;
39994;SDS011;25686;51.908;10.418;2022-07-23T07:49:31;9.18;;;5.20;;
39994;SDS011;25686;51.908;10.418;2022-07-23T07:51:32;7.95;;;4.97;;
39994;SDS011;25686;51.908;10.418;2022-07-23T07:53:33;7.85;;;5.10;;
39994;SDS011;25686;51.908;10.418;2022-07-23T07:55:34;8.20;;;4.63;;
39994;SDS011;25686;51.908;10.418;2022-07-23T07:57:36;9.27;;;4.43;;
39994;SDS011;25686;51.908;10.418;2022-07-23T07:59:37;8.27;;;4.20;;
39994;SDS011;25686;51.908;10.418;2022-07-23T08:01:38;8.23;;;3.83;;
39994;SDS011;25686;51.908;10.418;2022-07-23T08:03:38;5.18;;;4.00;;
39994;SDS011;25686;51.908;10.418;2022-07-23T08:05:39;8.40;;;3.80;;
39994;SDS011;25686;51.908;10.418;2022-07-23T08:07:41;10.07;;;3.30;;
39994;SDS011;25686;51.908;10.418;2022-07-23T08:09:41;9.18;;;4.40;;
39994;SDS011;25686;51.908;10.418;2022-07-23T08:11:42;7.55;;;4.18;;
39994;SDS011;25686;51.908;10.418;2022-07-23T08:13:43;7.38;;;4.95;;
39994;SDS011;25686;51.908;10.418;2022-07-23T08:15:44;5.78;;;3.30;;
39994;SDS011;25686;51.908;10.418;2022-07-23T08:17:46;6.03;;;3.05;;
39994;SDS011;25686;51.908;10.418;2022-07-23T08:19:47;7.68;;;3.45;;
39994;SDS011;25686;51.908;10.418;2022-07-23T08:21:48;7.10;;;3.15;;
39994;SDS011;25686;51.908;10.418;2022-07-23T08:23:49;10.13;;;3.28;;
39994;SDS011;25686;51.908;10.418;2022-07-23T08:25:50;6.43;;;3.38;;
39994;SDS011;25686;51.908;10.418;2022-07-23T08:27:51;4.60;;;2.90;;
39994;SDS011;25686;51.908;10.418;2022-07-23T08:29:52;6.50;;;3.45;;
39994;SDS011;25686;51.908;10.418;2022-07-23T08:31:53;4.75;;;3.17;;
39994;SDS011;25686;51.908;10.418;2022-07-23T08:33:54;8.13;;;3.30;;
39994;SDS011;25686;51.908;10.418;2022-07-23T08:35:56;7.10;;;3.08;;
39994;SDS011;25686;51.908;10.418;2022-07-23T08:37:58;5.00;;;2.80;;
39994;SDS011;25686;51.908;10.418;2022-07-23T08:39:59;3.92;;;2.35;;
39994;SDS011;25686;51.908;10.418;2022-07-23T08:42:00;7.45;;;3.20;;
39994;SDS011;25686;51.908;10.418;2022-07-23T08:44:01;4.85;;;2.60;;
39994;SDS011;25686;51.908;10.418;2022-07-23T08:46:02;4.57;;;3.05;;
39994;SDS011;25686;51.908;10.418;2022-07-23T08:48:04;6.75;;;3.38;;
39994;SDS011;25686;51.908;10.418;2022-07-23T08:50:06;4.85;;;3.17;;
39994;SDS011;25686;51.908;10.418;2022-07-23T08:52:08;5.75;;;3.10;;
39994;SDS011;25686;51.908;10.418;2022-07-23T08:54:09;4.50;;;2.90;;
39994;SDS011;25686;51.908;10.418;2022-07-23T08:56:10;7.10;;;3.20;;
39994;SDS011;25686;51.908;10.418;2022-07-23T08:58:11;5.15;;;3.08;;
39994;SDS011;25686;51.908;10.418;2022-07-23T09:00:13;5.82;;;3.47;;
39994;SDS011;25686;51.908;10.418;2022-07-23T09:02:14;5.10;;;2.70;;
39994;SDS011;25686;51.908;10.418;2022-07-23T09:04:15;4.80;;;2.50;;
39994;SDS011;25686;51.908;10.418;2022-07-23T09:06:16;6.10;;;2.80;;
39994;SDS011;25686;51.908;10.418;2022-07-23T09:08:17;8.25;;;2.80;;
39994;SDS011;25686;51.908;10.418;2022-07-23T09:10:19;4.93;;;2.78;;
39994;SDS011;25686;51.908;10.418;2022-07-23T09:12:20;5.60;;;2.97;;
39994;SDS011;25686;51.908;10.418;2022-07-23T09:14:35;5.45;;;2.70;;
39994;SDS011;25686;51.908;10.418;2022-07-23T09:16:36;4.22;;;2.80;;
39994;SDS011;25686;51.908;10.418;2022-07-23T09:20:38;27.00;;;4.38;;
39994;SDS011;25686;51.908;10.418;2022-07-23T09:22:40;11.20;;;2.90;;
39994;SDS011;25686;51.908;10.418;2022-07-23T09:25:04;5.63;;;2.67;;
39994;SDS011;25686;51.908;10.418;2022-07-23T09:27:06;6.28;;;2.03;;
39994;SDS011;25686;51.908;10.418;2022-07-23T09:39:44;4.75;;;2.40;;
39994;SDS011;25686;51.908;10.418;2022-07-23T09:41:45;4.97;;;2.35;;
39994;SDS011;25686;51.908;10.418;2022-07-23T09:43:47;5.97;;;2.63;;
39994;SDS011;25686;51.908;10.418;2022-07-23T09:45:48;4.18;;;2.40;;
39994;SDS011;25686;51.908;10.418;2022-07-23T09:47:49;3.67;;;2.20;;
39994;SDS011;25686;51.908;10.418;2022-07-23T09:50:03;5.55;;;2.13;;
39994;SDS011;25686;51.908;10.418;2022-07-23T09:52:08;4.88;;;2.33;;
39994;SDS011;25686;51.908;10.418;2022-07-23T09:54:20;5.13;;;2.35;;
39994;SDS011;25686;51.908;10.418;2022-07-23T09:56:22;3.83;;;1.90;;
39994;SDS011;25686;51.908;10.418;2022-07-23T09:58:23;3.70;;;1.90;;
39994;SDS011;25686;51.908;10.418;2022-07-23T10:00:26;2.83;;;1.80;;
39994;SDS011;25686;51.908;10.418;2022-07-23T10:02:28;3.05;;;1.92;;
39994;SDS011;25686;51.908;10.418;2022-07-23T10:04:31;5.18;;;2.00;;
39994;SDS011;25686;51.908;10.418;2022-07-23T10:06:32;3.10;;;2.00;;
39994;SDS011;25686;51.908;10.418;2022-07-23T10:08:34;3.30;;;2.17;;
39994;SDS011;25686;51.908;10.418;2022-07-23T10:10:35;3.15;;;1.90;;
39994;SDS011;25686;51.908;10.418;2022-07-23T10:12:36;3.22;;;1.98;;
39994;SDS011;25686;51.908;10.418;2022-07-23T10:14:57;3.83;;;1.95;;
39994;SDS011;25686;51.908;10.418;2022-07-23T10:16:58;4.25;;;1.40;;
39994;SDS011;25686;51.908;10.418;2022-07-23T10:18:59;2.88;;;1.63;;
39994;SDS011;25686;51.908;10.418;2022-07-23T10:21:00;3.58;;;1.55;;
39994;SDS011;25686;51.908;10.418;2022-07-23T10:27:37;2.50;;;1.60;;
39994;SDS011;25686;51.908;10.418;2022-07-23T10:29:45;7.60;;;2.00;;
39994;SDS011;25686;51.908;10.418;2022-07-23T10:31:58;4.55;;;1.85;;
39994;SDS011;25686;51.908;10.418;2022-07-23T10:36:09;3.85;;;1.77;;
39994;SDS011;25686;51.908;10.418;2022-07-23T10:40:35;4.03;;;1.70;;
39994;SDS011;25686;51.908;10.418;2022-07-23T10:42:36;4.18;;;1.48;;
39994;SDS011;25686;51.908;10.418;2022-07-23T10:44:38;5.10;;;1.45;;
39994;SDS011;25686;51.908;10.418;2022-07-23T10:46:56;4.50;;;1.88;;
39994;SDS011;25686;51.908;10.418;2022-07-23T10:51:33;3.58;;;1.60;;
39994;SDS011;25686;51.908;10.418;2022-07-23T10:55:51;5.38;;;1.80;;
39994;SDS011;25686;51.908;10.418;2022-07-23T10:57:53;3.22;;;1.70;;
39994;SDS011;25686;51.908;10.418;2022-07-23T11:02:21;3.40;;;1.52;;
39994;SDS011;25686;51.908;10.418;2022-07-23T11:04:47;2.90;;;1.50;;
39994;SDS011;25686;51.908;10.418;2022-07-23T11:08:47;3.65;;;1.60;;
39994;SDS011;25686;51.908;10.418;2022-07-23T11:11:08;2.38;;;1.75;;
39994;SDS011;25686;51.908;10.418;2022-07-23T11:15:23;2.50;;;1.50;;
39994;SDS011;25686;51.908;10.418;2022-07-23T11:17:24;2.90;;;1.90;;
39994;SDS011;25686;51.908;10.418;2022-07-23T11:19:25;2.75;;;1.60;;
39994;SDS011;25686;51.908;10.418;2022-07-23T11:23:57;3.20;;;1.60;;
39994;SDS011;25686;51.908;10.418;2022-07-23T11:25:58;2.05;;;1.63;;
39994;SDS011;25686;51.908;10.418;2022-07-23T11:28:09;2.90;;;1.27;;
39994;SDS011;25686;51.908;10.418;2022-07-23T11:30:13;2.65;;;1.73;;
39994;SDS011;25686;51.908;10.418;2022-07-23T11:32:32;3.85;;;1.50;;
39994;SDS011;25686;51.908;10.418;2022-07-23T11:36:48;3.25;;;1.55;;
39994;SDS011;25686;51.908;10.418;2022-07-23T11:38:49;4.78;;;1.30;;
39994;SDS011;25686;51.908;10.418;2022-07-23T11:40:53;2.17;;;1.50;;
39994;SDS011;25686;51.908;10.418;2022-07-23T11:44:55;3.00;;;1.45;;
39994;SDS011;25686;51.908;10.418;2022-07-23T11:46:57;4.65;;;1.92;;
39994;SDS011;25686;51.908;10.418;2022-07-23T11:49:01;3.38;;;1.63;;
39994;SDS011;25686;51.908;10.418;2022-07-23T11:51:02;3.53;;;1.35;;
39994;SDS011;25686;51.908;10.418;2022-07-23T11:53:03;3.75;;;1.50;;
39994;SDS011;25686;51.908;10.418;2022-07-23T11:55:05;2.45;;;1.40;;
39994;SDS011;25686;51.908;10.418;2022-07-23T11:57:06;3.63;;;1.40;;
39994;SDS011;25686;51.908;10.418;2022-07-23T11:59:07;3.13;;;1.77;;
39994;SDS011;25686;51.908;10.418;2022-07-23T12:01:09;2.90;;;1.55;;
39994;SDS011;25686;51.908;10.418;2022-07-23T12:03:10;3.38;;;1.60;;
39994;SDS011;25686;51.908;10.418;2022-07-23T12:05:12;4.03;;;1.73;;
39994;SDS011;25686;51.908;10.418;2022-07-23T12:09:32;4.32;;;1.50;;
39994;SDS011;25686;51.908;10.418;2022-07-23T12:11:33;3.08;;;1.60;;
39994;SDS011;25686;51.908;10.418;2022-07-23T12:13:34;2.58;;;1.40;;
39994;SDS011;25686;51.908;10.418;2022-07-23T12:15:40;2.55;;;1.70;;
39994;SDS011;25686;51.908;10.418;2022-07-23T12:17:43;2.88;;;1.75;;
39994;SDS011;25686;51.908;10.418;2022-07-23T12:19:44;2.47;;;1.60;;
39994;SDS011;25686;51.908;10.418;2022-07-23T12:21:46;2.90;;;1.50;;
39994;SDS011;25686;51.908;10.418;2022-07-23T12:23:48;2.40;;;1.50;;
39994;SDS011;25686;51.908;10.418;2022-07-23T12:25:49;4.60;;;1.60;;
39994;SDS011;25686;51.908;10.418;2022-07-23T12:28:01;2.13;;;1.30;;
39994;SDS011;25686;51.908;10.418;2022-07-23T12:30:14;2.08;;;1.35;;
39994;SDS011;25686;51.908;10.418;2022-07-23T12:32:17;3.65;;;1.65;;
39994;SDS011;25686;51.908;10.418;2022-07-23T12:34:18;3.75;;;1.60;;